Time;durP1;ratioP1;P1;durP2;ratioP2;P2;SDS_P1;SDS_P2;PMS_P1;PMS_P2;Temp;Humidity;BMP_temperature;BMP_pressure;BME280_temperature;BME280_humidity;BME280_pressure;Samples;Min_cycle;Max_cycle;Signal;HPM_P1;HPM_P2
2022/03/18 07:58:39;;;;;;;11.90;3.95;;;6.30;99.90;;;;;;14068480;23;20080;-82
2022/03/18 08:08:40;;;;;;;9.82;3.78;;;6.90;99.90;;;;;;20142248;29;20062;-82
2022/03/18 08:18:41;;;;;;;7.22;2.70;;;7.30;99.90;;;;;;20123046;29;20054;-83
2022/03/18 08:28:43;;;;;;;6.35;2.45;;;7.80;99.90;;;;;;20126211;29;20044;-81
2022/03/18 08:38:44;;;;;;;3.10;1.70;;;8.30;99.90;;;;;;20186049;29;20522;-82
2022/03/18 08:48:45;;;;;;;4.35;2.15;;;8.80;99.90;;;;;;20123687;29;20045;-82
2022/03/18 08:58:46;;;;;;;3.78;1.90;;;9.20;99.90;;;;;;20061058;29;20240;-82
2022/03/18 09:08:47;;;;;;;7.90;1.88;;;9.70;99.90;;;;;;20106679;29;20048;-83
2022/03/18 09:18:48;;;;;;;5.15;2.20;;;10.10;99.90;;;;;;20051367;29;20054;-81
2022/03/18 09:28:51;;;;;;;4.28;2.22;;;10.40;99.90;;;;;;20088376;29;20061;-82
2022/03/18 09:38:54;;;;;;;6.47;2.30;;;10.80;99.90;;;;;;20106784;29;20633;-82
2022/03/18 09:48:56;;;;;;;6.45;2.25;;;10.70;99.90;;;;;;20103438;29;20045;-82
2022/03/18 09:58:57;;;;;;;3.97;2.30;;;10.80;99.90;;;;;;20081582;29;20048;-81
2022/03/18 10:08:59;;;;;;;6.00;2.40;;;10.90;99.90;;;;;;20058478;29;20047;-82
2022/03/18 10:19:03;;;;;;;9.70;2.05;;;11.20;99.90;;;;;;20108582;29;20045;-82
2022/03/18 10:29:05;;;;;;;5.00;2.40;;;11.80;99.90;;;;;;20129922;29;20467;-82
2022/03/18 10:39:06;;;;;;;3.80;2.08;;;12.10;99.90;;;;;;20138020;29;20061;-83
2022/03/18 10:49:08;;;;;;;7.78;2.58;;;12.90;99.90;;;;;;20133618;29;20609;-81
2022/03/18 10:59:09;;;;;;;2.90;1.63;;;13.40;99.90;;;;;;20109232;29;20577;-81
2022/03/18 11:09:14;;;;;;;6.53;1.35;;;14.10;99.90;;;;;;20034408;29;20113;-82
2022/03/18 11:20:27;;;;;;;5.30;1.65;;;14.30;99.90;;;;;;20617172;23;20075;-94
2022/03/18 11:31:18;;;;;;;5.10;1.40;;;14.80;99.90;;;;;;20073259;29;20198;-95
2022/03/18 11:43:02;;;;;;;5.38;1.55;;;15.40;99.90;;;;;;20016573;29;20098;-95
2022/03/18 11:53:47;;;;;;;4.63;1.90;;;15.80;99.90;;;;;;19989688;23;20163;-48
2022/03/18 12:03:55;;;;;;;6.45;1.20;;;16.10;99.90;;;;;;20194161;29;20234;-48
2022/03/18 12:13:57;;;;;;;4.65;1.40;;;15.90;99.90;;;;;;20195081;29;20060;-48
2022/03/18 12:24:06;;;;;;;2.05;0.95;;;16.00;99.90;;;;;;20193444;29;20432;-48
2022/03/18 12:34:09;;;;;;;2.00;0.60;;;16.10;99.90;;;;;;20130183;29;20057;-48
2022/03/18 12:44:10;;;;;;;3.45;1.38;;;16.80;99.90;;;;;;20174297;29;20531;-48
2022/03/18 12:54:11;;;;;;;7.10;1.27;;;17.20;99.50;;;;;;20155956;29;20065;-48
2022/03/18 13:04:12;;;;;;;5.40;0.90;;;17.50;99.20;;;;;;20140627;29;20055;-48
2022/03/18 13:14:13;;;;;;;2.65;1.15;;;17.70;97.70;;;;;;20111097;29;20049;-49
2022/03/18 13:24:15;;;;;;;1.95;0.82;;;18.20;98.90;;;;;;20063918;29;20057;-51
2022/03/18 14:05:29;;;;;;;2.65;1.08;;;19.10;94.80;;;;;;20063713;29;20077;-50
2022/03/18 14:15:50;;;;;;;2.30;1.15;;;19.50;95.20;;;;;;20060030;29;20057;-54
2022/03/18 14:25:53;;;;;;;4.07;1.10;;;19.70;93.50;;;;;;20065244;29;21557;-48
2022/03/18 14:35:55;;;;;;;2.88;1.35;;;19.40;93.70;;;;;;20068259;29;20049;-49
2022/03/18 14:45:56;;;;;;;3.75;1.58;;;18.70;95.10;;;;;;20063811;29;20056;-48
2022/03/18 15:06:17;;;;;;;3.85;1.25;;;17.20;96.00;;;;;;20072285;29;20052;-48
2022/03/18 15:16:18;;;;;;;5.15;1.30;;;16.90;96.90;;;;;;20057112;29;20061;-48
2022/03/18 15:26:19;;;;;;;2.58;1.17;;;16.60;96.70;;;;;;20028559;29;20506;-48
2022/03/18 15:36:21;;;;;;;5.78;1.58;;;16.30;97.00;;;;;;20082994;29;20056;-48
2022/03/18 15:46:22;;;;;;;2.55;1.10;;;16.20;97.30;;;;;;20078800;29;20398;-48
2022/03/18 15:56:27;;;;;;;3.80;1.85;;;15.90;99.10;;;;;;20094504;29;20053;-48
2022/03/18 16:06:28;;;;;;;5.07;1.83;;;15.70;98.70;;;;;;20189573;29;20291;-48
2022/03/18 16:16:29;;;;;;;6.38;2.15;;;15.50;99.00;;;;;;20202134;29;20067;-47
2022/03/18 16:26:30;;;;;;;3.15;1.38;;;15.30;99.20;;;;;;20214262;29;20061;-48
2022/03/18 16:36:31;;;;;;;4.00;1.88;;;15.10;99.80;;;;;;20207527;29;20390;-49
2022/03/18 16:56:54;;;;;;;8.55;2.75;;;14.80;99.90;;;;;;20213623;29;20112;-48
2022/03/18 17:06:55;;;;;;;5.72;1.73;;;14.70;99.90;;;;;;20203618;29;20048;-47
2022/03/18 17:16:56;;;;;;;4.10;1.85;;;14.60;99.90;;;;;;20193702;29;20048;-48
2022/03/18 17:26:59;;;;;;;6.00;2.72;;;14.20;99.90;;;;;;20223219;29;20551;-48
2022/03/18 17:37:00;;;;;;;7.55;2.92;;;13.90;99.90;;;;;;20209910;29;20052;-48
2022/03/18 17:47:04;;;;;;;9.88;3.10;;;13.60;99.90;;;;;;20221487;29;20053;-48
2022/03/18 17:57:05;;;;;;;8.05;2.97;;;13.40;99.90;;;;;;20191657;29;20409;-47
2022/03/18 18:07:06;;;;;;;5.45;2.47;;;13.10;99.90;;;;;;20077737;29;20038;-47
2022/03/18 18:17:07;;;;;;;12.40;2.30;;;12.90;99.90;;;;;;20094606;29;20053;-47
2022/03/18 18:27:09;;;;;;;6.78;3.42;;;12.70;99.90;;;;;;20055679;29;20150;-48
2022/03/18 18:37:10;;;;;;;7.90;2.63;;;12.40;99.90;;;;;;19976349;29;20382;-47
2022/03/18 18:47:14;;;;;;;6.97;2.50;;;12.20;99.90;;;;;;20012633;29;21080;-47
2022/03/18 18:57:15;;;;;;;8.45;3.33;;;12.00;99.90;;;;;;20033932;29;20048;-47
2022/03/18 19:07:17;;;;;;;8.27;2.50;;;11.90;99.90;;;;;;20178789;29;20520;-47
2022/03/18 19:17:18;;;;;;;8.88;2.70;;;11.70;99.90;;;;;;20183276;29;20061;-47
2022/03/18 19:27:20;;;;;;;6.35;3.17;;;11.40;99.90;;;;;;20172739;29;20040;-47
2022/03/18 19:37:21;;;;;;;9.43;3.92;;;11.00;99.90;;;;;;20194343;29;20061;-47
2022/03/18 19:47:23;;;;;;;10.82;3.60;;;10.80;99.90;;;;;;20193525;29;20063;-47
2022/03/18 20:07:44;;;;;;;7.18;2.42;;;10.50;99.90;;;;;;20207728;29;20055;-47
2022/03/18 20:17:46;;;;;;;5.68;2.80;;;10.40;99.90;;;;;;20189794;29;20514;-47
2022/03/18 20:27:48;;;;;;;7.15;2.92;;;10.30;99.90;;;;;;20200499;29;20053;-47
2022/03/18 20:37:54;;;;;;;5.97;2.95;;;10.30;99.90;;;;;;20190173;29;21121;-48
2022/03/18 20:47:56;;;;;;;5.53;2.15;;;10.20;99.90;;;;;;20186720;29;20406;-47
2022/03/18 20:57:57;;;;;;;6.05;1.77;;;10.10;99.90;;;;;;20183892;29;20069;-47
2022/03/18 21:07:58;;;;;;;6.60;1.65;;;10.20;99.90;;;;;;20192383;29;20508;-47
2022/03/18 21:18:00;;;;;;;5.55;1.50;;;10.10;99.90;;;;;;20214650;29;20175;-47
2022/03/18 21:38:20;;;;;;;12.90;2.00;;;10.00;99.90;;;;;;20201111;29;20060;-47
2022/03/18 21:48:22;;;;;;;4.80;2.08;;;10.00;99.90;;;;;;20200820;29;20052;-47
2022/03/18 21:58:23;;;;;;;5.32;1.67;;;10.00;99.90;;;;;;20206103;29;20052;-48
2022/03/18 22:08:24;;;;;;;4.70;1.50;;;9.90;99.90;;;;;;20185845;29;20044;-47
2022/03/18 22:18:25;;;;;;;6.50;1.67;;;9.90;99.90;;;;;;20176050;29;20063;-47
2022/03/18 22:28:27;;;;;;;6.82;1.75;;;10.00;99.90;;;;;;20194401;29;20055;-48
2022/03/18 22:38:28;;;;;;;4.32;1.40;;;9.90;99.90;;;;;;20200253;29;20048;-48
2022/03/18 22:48:29;;;;;;;2.65;1.23;;;9.80;99.90;;;;;;20190868;29;20041;-48
2022/03/18 22:58:30;;;;;;;5.28;2.17;;;9.70;99.90;;;;;;20172558;29;20061;-48
2022/03/18 23:08:31;;;;;;;10.20;1.50;;;9.80;99.90;;;;;;20070815;29;20135;-47
2022/03/18 23:18:38;;;;;;;4.57;1.92;;;9.80;99.90;;;;;;20070632;29;21440;-47
2022/03/18 23:28:39;;;;;;;9.48;1.85;;;9.70;99.90;;;;;;20080324;29;20284;-47
2022/03/18 23:38:41;;;;;;;4.57;1.38;;;9.50;99.90;;;;;;20061114;29;20088;-47
2022/03/18 23:48:42;;;;;;;4.50;1.50;;;9.40;99.90;;;;;;20037596;29;20057;-47
2022/03/18 23:58:45;;;;;;;7.75;1.50;;;9.30;99.90;;;;;;20057253;29;20382;-47
